Time;durP1;ratioP1;P1;durP2;ratioP2;P2;SDS_P1;SDS_P2;PMS_P1;PMS_P2;Temp;Humidity;BMP_temperature;BMP_pressure;BME280_temperature;BME280_humidity;BME280_pressure;Samples;Min_cycle;Max_cycle;Signal;HPM_P1;HPM_P2
2020/12/09 00:01:16;;;;;;;20.00;13.60;;;;;;;22.64;44.50;94799.47;4941547;28;20035;-78
2020/12/09 00:03:41;;;;;;;22.73;13.15;;;;;;;22.64;44.21;94799.47;4923726;28;20042;-78
2020/12/09 00:06:07;;;;;;;21.75;13.63;;;;;;;22.59;44.54;94797.53;4936038;28;20459;-78
2020/12/09 00:08:32;;;;;;;20.58;13.88;;;;;;;22.50;44.28;94795.16;4933968;28;20505;-78
2020/12/09 00:10:58;;;;;;;20.23;13.27;;;;;;;22.54;44.47;94801.03;4970824;28;20499;-78
2020/12/09 00:13:24;;;;;;;19.42;13.13;;;;;;;22.48;44.63;94797.63;4973104;28;20065;-78
2020/12/09 00:15:49;;;;;;;21.83;14.38;;;;;;;22.46;44.53;94794.69;4952591;28;20066;-78
2020/12/09 00:18:15;;;;;;;20.73;13.70;;;;;;;22.47;44.68;94793.44;4932299;28;20502;-85
2020/12/09 00:20:40;;;;;;;19.30;13.57;;;;;;;22.44;44.62;94797.19;4949921;28;20031;-80
2020/12/09 00:23:06;;;;;;;21.52;14.00;;;;;;;22.41;44.59;94787.31;4950423;28;20027;-79
2020/12/09 00:25:31;;;;;;;20.83;13.23;;;;;;;22.43;44.61;94795.69;4970423;28;20045;-77
2020/12/09 00:27:56;;;;;;;20.45;13.63;;;;;;;22.34;44.74;94784.41;4972963;28;21437;-77
2020/12/09 00:30:22;;;;;;;20.60;13.55;;;;;;;22.40;44.50;94785.81;4954612;28;20522;-77
2020/12/09 00:32:47;;;;;;;21.52;13.18;;;;;;;22.39;44.77;94784.38;4948775;28;20456;-87
2020/12/09 00:35:13;;;;;;;18.88;12.88;;;;;;;22.34;44.75;94776.97;4952886;28;20042;-79
2020/12/09 00:37:38;;;;;;;19.50;13.65;;;;;;;22.32;44.68;94773.31;4950665;28;20034;-77
2020/12/09 00:40:04;;;;;;;22.02;13.55;;;;;;;22.31;44.70;94783.44;4949679;28;20046;-78
2020/12/09 00:42:31;;;;;;;19.98;13.43;;;;;;;22.29;44.67;94785.19;4972068;28;20125;-78
2020/12/09 00:44:57;;;;;;;21.35;12.95;;;;;;;22.30;44.78;94790.13;4951513;28;20027;-78
2020/12/09 00:47:22;;;;;;;21.17;13.70;;;;;;;22.28;45.02;94783.72;4948237;28;20042;-77
2020/12/09 00:52:32;;;;;;;20.50;13.10;;;;;;;22.21;44.77;94768.69;4969269;28;20034;-77
2020/12/09 00:54:57;;;;;;;20.80;12.90;;;;;;;22.19;44.71;94765.69;4936414;28;20031;-78
2020/12/09 00:57:23;;;;;;;18.75;13.10;;;;;;;22.19;44.82;94776.56;4928974;28;20527;-77
2020/12/09 00:59:48;;;;;;;20.42;12.57;;;;;;;22.19;44.66;94776.56;4930790;28;20031;-77
2020/12/09 01:02:14;;;;;;;19.20;12.50;;;;;;;22.17;44.78;94768.19;4948016;28;20578;-78
2020/12/09 01:04:39;;;;;;;20.42;13.32;;;;;;;22.15;44.89;94770.69;4962810;28;20039;-77
2020/12/09 01:07:04;;;;;;;20.63;13.30;;;;;;;22.18;44.90;94771.63;4948438;28;20105;-79
2020/12/09 01:09:30;;;;;;;19.15;13.40;;;;;;;22.15;44.92;94759.81;4950400;28;20061;-78
2020/12/09 01:12:03;;;;;;;19.52;12.80;;;;;;;22.13;44.83;94770.44;4946861;28;22124;-79
2020/12/09 01:14:29;;;;;;;19.65;12.70;;;;;;;22.08;44.95;94765.06;4967826;28;20026;-79
2020/12/09 01:16:54;;;;;;;21.48;13.32;;;;;;;22.11;45.14;94769.50;4934737;28;20043;-78
2020/12/09 01:19:19;;;;;;;20.48;12.65;;;;;;;22.11;44.80;94767.50;4919273;28;20050;-78
2020/12/09 01:21:45;;;;;;;20.98;13.15;;;;;;;22.02;45.12;94751.50;4965709;28;20039;-78
2020/12/09 01:24:11;;;;;;;19.90;12.45;;;;;;;22.06;44.96;94757.41;4930870;28;20090;-78
2020/12/09 01:26:36;;;;;;;17.90;12.40;;;;;;;22.03;45.07;94749.50;4948954;28;20026;-78
2020/12/09 01:29:01;;;;;;;20.00;13.45;;;;;;;21.98;45.12;94750.31;4931465;28;20035;-77
2020/12/09 01:31:27;;;;;;;19.27;12.82;;;;;;;21.97;45.13;94751.53;4951652;28;20054;-77
2020/12/09 01:33:52;;;;;;;18.63;13.25;;;;;;;22.00;45.09;94748.56;4970345;28;20030;-79
2020/12/09 01:36:24;;;;;;;19.45;12.95;;;;;;;21.95;44.89;94735.72;4947739;28;20464;-79
2020/12/09 01:38:50;;;;;;;20.73;13.50;;;;;;;21.94;44.81;94739.72;4949462;28;20616;-79
2020/12/09 01:41:19;;;;;;;19.77;12.65;;;;;;;21.96;45.03;94737.22;4949553;28;20049;-82
2020/12/09 01:43:46;;;;;;;18.55;12.65;;;;;;;21.95;44.92;94741.16;4934287;28;20026;-79
2020/12/09 01:46:18;;;;;;;19.48;12.60;;;;;;;21.93;44.89;94732.78;4933063;28;20039;-78
2020/12/09 01:48:43;;;;;;;20.20;13.05;;;;;;;21.92;45.21;94724.41;4969345;28;20034;-79
2020/12/09 01:51:09;;;;;;;21.67;12.18;;;;;;;21.87;45.19;94727.88;4935339;28;20039;-79
2020/12/09 01:53:34;;;;;;;19.27;13.07;;;;;;;21.88;45.25;94729.38;4953677;28;20055;-79
2020/12/09 01:56:00;;;;;;;18.70;12.75;;;;;;;21.85;45.15;94724.94;4936210;28;20045;-79
2020/12/09 01:58:25;;;;;;;19.35;13.45;;;;;;;21.86;45.18;94731.88;4955589;28;20034;-79
2020/12/09 02:00:53;;;;;;;19.10;12.85;;;;;;;21.89;44.99;94733.56;4970959;28;20038;-78
2020/12/09 02:03:18;;;;;;;19.55;12.73;;;;;;;21.87;44.93;94727.88;4972448;28;20712;-78
2020/12/09 02:05:44;;;;;;;21.13;12.68;;;;;;;21.89;45.11;94726.16;4954108;28;20054;-79
2020/12/09 02:08:09;;;;;;;20.17;13.32;;;;;;;21.83;45.12;94716.56;4970559;28;20035;-78
2020/12/09 02:10:34;;;;;;;17.90;12.68;;;;;;;21.83;45.19;94716.56;4934793;28;20072;-79
2020/12/09 02:13:00;;;;;;;18.17;12.50;;;;;;;21.86;45.30;94726.44;4935668;28;20042;-79
2020/12/09 02:15:25;;;;;;;20.67;12.88;;;;;;;21.79;45.18;94721.53;4956206;28;20043;-79
2020/12/09 02:17:51;;;;;;;20.88;12.65;;;;;;;21.83;44.99;94722.72;4938731;28;20109;-83
2020/12/09 02:20:16;;;;;;;16.58;11.63;;;;;;;21.80;45.00;94714.88;4972502;28;20418;-78
2020/12/09 02:22:53;;;;;;;19.08;12.20;;;;;;;21.81;45.01;94713.59;4957452;28;20030;-78
2020/12/09 02:25:18;;;;;;;17.90;12.82;;;;;;;21.76;45.18;94722.53;4938596;28;20097;-79
2020/12/09 02:27:44;;;;;;;18.58;12.82;;;;;;;21.80;45.11;94728.44;4939238;28;20035;-79
2020/12/09 02:30:09;;;;;;;19.02;12.63;;;;;;;21.79;45.09;94726.97;4977425;28;20051;-79
2020/12/09 02:32:35;;;;;;;19.95;12.65;;;;;;;21.76;45.08;94727.97;4989355;28;20034;-82
2020/12/09 02:35:00;;;;;;;19.92;12.45;;;;;;;21.70;45.07;94719.13;4972158;28;20034;-79
2020/12/09 02:37:26;;;;;;;18.08;12.43;;;;;;;21.72;45.29;94735.66;4919849;28;20031;-79
2020/12/09 02:39:51;;;;;;;19.70;12.70;;;;;;;21.70;45.43;94719.13;4936532;28;20117;-78
2020/12/09 02:42:16;;;;;;;20.00;13.10;;;;;;;21.72;45.14;94727.50;4952762;28;20502;-77
2020/12/09 02:44:42;;;;;;;17.85;12.25;;;;;;;21.70;45.11;94735.44;4965793;28;20046;-77
2020/12/09 02:47:07;;;;;;;19.52;11.98;;;;;;;21.63;44.96;94725.13;4934507;28;20512;-78
2020/12/09 06:55:13;;;;;;;9.23;6.10;;;;;;;23.86;41.49;94689.25;5204311;22;1220477;-75
2020/12/09 06:57:40;;;;;;;8.25;5.80;;;;;;;23.90;40.88;94688.41;4922131;28;20052;-71
2020/12/09 07:00:26;;;;;;;8.13;5.70;;;;;;;24.00;41.22;94686.75;4996312;28;20042;-73
2020/12/09 07:02:52;;;;;;;9.35;5.75;;;;;;;24.05;40.90;94677.00;4994571;28;20038;-72
2020/12/09 07:05:36;;;;;;;7.32;5.65;;;;;;;24.11;41.34;94675.66;4996829;28;20041;-72
2020/12/09 07:08:04;;;;;;;8.30;5.70;;;;;;;24.12;41.34;94666.19;4992373;28;20108;-72
2020/12/09 07:10:30;;;;;;;8.70;6.30;;;;;;;24.16;40.97;94666.63;5008907;28;20041;-73
2020/12/09 07:13:08;;;;;;;6.78;4.70;;;;;;;24.24;41.11;94672.94;4997717;28;20046;-71
2020/12/09 07:15:35;;;;;;;7.57;5.45;;;;;;;24.31;41.01;94671.59;4994888;28;20049;-71
2020/12/09 07:18:01;;;;;;;7.40;5.40;;;;;;;24.32;40.81;94668.34;4994434;28;20060;-72
2020/12/09 07:20:26;;;;;;;7.25;5.28;;;;;;;24.35;40.71;94667.34;5010726;28;20026;-71
2020/12/09 07:22:52;;;;;;;8.40;5.47;;;;;;;24.40;40.28;94663.75;4997611;28;21103;-70
2020/12/09 07:25:17;;;;;;;8.07;5.80;;;;;;;24.43;40.54;94659.97;4998476;28;20088;-76
2020/12/09 07:27:43;;;;;;;8.57;5.75;;;;;;;24.50;40.18;94662.09;4995081;28;20022;-70
2020/12/09 07:30:10;;;;;;;11.38;4.78;;;;;;;24.52;40.13;94651.38;4996036;28;20026;-72
2020/12/09 07:32:36;;;;;;;7.82;5.10;;;;;;;24.56;40.24;94657.25;4996651;28;20068;-71
2020/12/09 07:35:06;;;;;;;9.07;4.88;;;;;;;24.59;40.05;94648.03;4993555;28;20157;-71
2020/12/09 07:37:35;;;;;;;8.88;5.10;;;;;;;24.61;40.25;94656.41;4990946;28;20564;-71
2020/12/09 07:40:18;;;;;;;7.28;4.50;;;;;;;24.66;40.04;94667.22;4995453;28;20044;-71
2020/12/09 07:42:43;;;;;;;9.13;4.50;;;;;;;24.70;39.71;94664.19;4993456;28;20502;-70
2020/12/09 07:45:10;;;;;;;7.50;4.57;;;;;;;24.77;39.68;94674.47;4993031;28;20030;-71
2020/12/09 07:47:36;;;;;;;6.28;4.38;;;;;;;24.75;39.48;94671.53;4995507;28;20120;-71
2020/12/09 07:50:05;;;;;;;6.57;4.47;;;;;;;24.77;39.74;94669.00;4994879;28;20046;-71
2020/12/09 07:52:35;;;;;;;7.25;4.85;;;;;;;24.82;39.25;94670.91;4995619;28;20034;-71
2020/12/09 07:55:03;;;;;;;7.45;4.65;;;;;;;24.82;39.14;94668.16;4997914;28;20481;-71
2020/12/09 07:57:30;;;;;;;7.05;4.32;;;;;;;24.85;39.08;94665.84;4995413;28;20612;-71
2020/12/09 07:59:56;;;;;;;6.65;4.47;;;;;;;24.86;39.23;94672.78;4997139;28;20037;-72
2020/12/09 08:02:23;;;;;;;7.00;4.55;;;;;;;24.88;38.95;94669.53;4988041;28;20049;-72
2020/12/09 08:05:04;;;;;;;6.47;4.28;;;;;;;24.88;39.14;94670.25;4979001;28;20054;-73
2020/12/09 08:07:30;;;;;;;7.25;4.57;;;;;;;24.89;39.30;94671.72;4982271;28;20042;-72
2020/12/09 08:10:06;;;;;;;5.72;4.43;;;;;;;24.85;38.86;94665.84;4981443;28;20081;-72
2020/12/09 08:12:34;;;;;;;51.47;8.30;;;;;;;24.87;38.98;94668.78;4981484;28;20425;-72
2020/12/09 08:14:59;;;;;;;16.40;5.32;;;;;;;24.89;39.24;94666.25;4967903;28;20847;-71
2020/12/09 08:17:26;;;;;;;13.07;4.30;;;;;;;24.90;39.49;94666.97;4982310;28;20105;-72
2020/12/09 08:20:17;;;;;;;9.23;4.65;;;;;;;24.96;39.50;94667.59;4983053;28;20076;-72
2020/12/09 08:22:53;;;;;;;8.75;4.43;;;;;;;24.99;39.12;94674.78;4977566;28;20038;-76
2020/12/09 08:25:18;;;;;;;7.78;4.10;;;;;;;25.00;38.98;94679.72;4983535;28;20045;-73
2020/12/09 08:27:45;;;;;;;7.53;4.00;;;;;;;25.09;38.90;94678.56;4981046;28;20034;-69
2020/12/09 08:30:24;;;;;;;9.45;4.13;;;;;;;25.11;39.04;94687.69;4966700;28;20058;-70
2020/12/09 08:33:13;;;;;;;7.73;4.17;;;;;;;25.11;38.87;94690.44;4998659;28;20035;-70
2020/12/09 08:35:51;;;;;;;7.60;3.90;;;;;;;25.20;39.52;94695.47;4970359;28;20050;-70
2020/12/09 08:38:25;;;;;;;9.23;4.05;;;;;;;25.27;39.37;94683.88;4981008;28;20116;-71
2020/12/09 08:40:55;;;;;;;6.75;3.72;;;;;;;25.30;39.11;94688.28;4983148;28;20536;-71
2020/12/09 08:43:24;;;;;;;9.35;4.18;;;;;;;25.31;39.06;94678.81;4980466;28;20015;-71
2020/12/09 08:45:50;;;;;;;8.82;4.20;;;;;;;25.32;38.82;94675.56;4975678;28;20041;-71
2020/12/09 08:48:18;;;;;;;6.82;3.80;;;;;;;25.24;39.10;94674.00;4982779;28;20023;-70
2020/12/09 08:50:44;;;;;;;8.25;3.95;;;;;;;25.32;38.87;94674.84;4982058;28;20049;-71
2020/12/09 08:53:10;;;;;;;6.75;3.38;;;;;;;25.27;39.14;94678.41;4983147;28;20041;-71
2020/12/09 08:55:35;;;;;;;6.38;4.43;;;;;;;25.24;38.99;94684.94;4983760;28;20042;-71
2020/12/09 08:58:01;;;;;;;7.57;4.25;;;;;;;25.22;38.81;94687.47;4980865;28;20046;-71
2020/12/09 09:00:26;;;;;;;7.78;4.45;;;;;;;25.18;39.06;94675.38;4979882;28;20089;-71
2020/12/09 09:02:52;;;;;;;6.38;3.88;;;;;;;25.11;39.46;94671.31;4981070;28;20768;-71
2020/12/09 09:05:17;;;;;;;6.97;3.63;;;;;;;25.09;39.53;94668.34;4980523;28;20030;-71
2020/12/09 09:07:42;;;;;;;6.28;3.88;;;;;;;25.06;39.10;94674.88;4977230;28;20092;-71
2020/12/09 09:10:08;;;;;;;5.70;3.58;;;;;;;25.01;39.34;94656.59;4981292;28;20042;-72
2020/12/09 09:12:33;;;;;;;7.05;4.38;;;;;;;24.99;39.61;94653.69;4982316;28;20042;-71
2020/12/09 09:14:59;;;;;;;5.75;3.75;;;;;;;24.97;39.47;94658.88;4979739;28;20022;-71
2020/12/09 09:17:24;;;;;;;5.63;3.42;;;;;;;24.86;39.64;94642.72;4996356;28;20039;-71
2020/12/09 09:19:50;;;;;;;5.38;3.15;;;;;;;24.89;39.50;94644.41;4980939;28;20026;-71
2020/12/09 09:22:15;;;;;;;4.93;3.50;;;;;;;24.93;39.50;94647.56;4981172;28;20499;-71
2020/12/09 09:24:41;;;;;;;5.82;3.83;;;;;;;24.86;39.73;94656.38;4982865;28;20029;-71
2020/12/09 09:27:12;;;;;;;4.93;3.50;;;;;;;24.85;39.36;94654.19;4983064;28;20037;-72
2020/12/09 09:29:38;;;;;;;5.38;3.30;;;;;;;24.83;39.99;94656.72;4980945;28;20141;-71
2020/12/09 09:32:04;;;;;;;6.40;3.70;;;;;;;24.82;39.63;94654.50;4966224;28;20438;-72
2020/12/09 09:34:30;;;;;;;5.32;3.42;;;;;;;24.79;39.60;94650.09;4983626;28;20030;-71
2020/12/09 09:36:56;;;;;;;5.60;3.47;;;;;;;24.74;39.86;94648.19;4982298;28;20173;-71
2020/12/09 09:39:22;;;;;;;6.70;3.90;;;;;;;24.68;39.70;94639.38;4978183;28;20498;-70
2020/12/09 09:41:47;;;;;;;6.85;3.80;;;;;;;24.65;40.00;94624.06;4983091;28;20037;-70
2020/12/09 09:44:13;;;;;;;6.35;3.92;;;;;;;24.67;39.69;94616.09;4980413;28;20411;-70
2020/12/09 09:46:39;;;;;;;6.25;3.72;;;;;;;24.64;39.67;94611.69;4979305;28;20058;-70
2020/12/09 09:49:04;;;;;;;6.72;3.50;;;;;;;24.65;39.59;94618.59;4997228;28;20033;-70
2020/12/09 09:51:30;;;;;;;4.78;3.42;;;;;;;24.55;39.70;94598.44;4979997;28;20042;-70
2020/12/09 09:53:55;;;;;;;6.50;3.85;;;;;;;24.61;39.88;94610.00;4978496;28;20096;-70
2020/12/09 09:56:20;;;;;;;6.60;3.60;;;;;;;24.57;40.23;94607.59;4985334;28;20061;-70
2020/12/09 09:58:46;;;;;;;6.55;3.60;;;;;;;24.58;39.88;94608.31;4978291;28;20089;-71
2020/12/09 10:01:15;;;;;;;7.93;3.92;;;;;;;24.52;40.06;94594.78;4981378;28;20034;-70
2020/12/09 10:03:41;;;;;;;6.68;3.67;;;;;;;24.52;39.89;94604.97;4981154;28;20196;-71
2020/12/09 10:06:06;;;;;;;5.50;3.42;;;;;;;24.49;39.78;94590.38;4991421;28;20030;-70
2020/12/09 10:08:31;;;;;;;6.72;3.70;;;;;;;24.47;40.43;94586.72;4979107;28;20026;-70
2020/12/09 10:11:01;;;;;;;5.53;3.40;;;;;;;24.38;40.02;94568.03;4979860;28;20033;-71
2020/12/09 10:13:26;;;;;;;4.93;3.23;;;;;;;24.41;39.91;94580.63;4981761;28;20022;-70
2020/12/09 10:15:52;;;;;;;5.80;3.92;;;;;;;24.46;40.21;94582.50;4975522;28;20697;-71
2020/12/09 10:18:17;;;;;;;5.80;3.30;;;;;;;24.46;39.83;94585.22;4978780;28;20030;-72
2020/12/09 10:20:43;;;;;;;7.25;3.45;;;;;;;24.41;40.33;94577.91;4981356;28;20080;-71
2020/12/09 10:23:08;;;;;;;6.10;3.30;;;;;;;24.42;40.54;94562.97;4976469;28;20034;-70
2020/12/09 10:25:34;;;;;;;6.35;3.53;;;;;;;24.43;40.13;94553.53;4982274;28;20057;-74
2020/12/09 10:28:00;;;;;;;8.93;3.60;;;;;;;24.41;40.07;94561.53;4981388;28;20030;-72
2020/12/09 10:30:25;;;;;;;8.93;3.83;;;;;;;24.25;39.63;94548.91;4981103;28;20529;-70
2020/12/09 10:32:50;;;;;;;5.35;3.33;;;;;;;24.20;40.08;94536.09;4978747;28;20038;-72
2020/12/09 10:35:16;;;;;;;8.27;3.13;;;;;;;24.25;40.40;94532.53;4996716;28;20071;-72
2020/12/09 10:37:41;;;;;;;7.30;3.33;;;;;;;24.35;40.22;94544.53;4981205;28;20038;-69
2020/12/09 10:40:07;;;;;;;5.95;3.10;;;;;;;24.32;40.54;94539.34;4980289;28;20055;-71
2020/12/09 10:42:33;;;;;;;6.30;3.30;;;;;;;24.34;40.44;94530.13;4979285;28;20049;-71
2020/12/09 10:44:58;;;;;;;5.13;3.65;;;;;;;24.37;40.39;94528.34;4978218;28;20042;-73
2020/12/09 10:47:24;;;;;;;5.50;3.45;;;;;;;24.38;40.56;94524.38;4981753;28;20042;-73
2020/12/09 10:49:50;;;;;;;6.18;3.10;;;;;;;24.35;39.88;94517.22;4997357;28;20042;-72
2020/12/09 10:52:16;;;;;;;10.25;3.63;;;;;;;24.44;39.87;94535.91;4993354;28;20041;-71
2020/12/09 10:54:41;;;;;;;13.32;3.33;;;;;;;24.47;39.99;94521.91;4980368;28;20022;-73
2020/12/09 10:57:07;;;;;;;7.38;3.38;;;;;;;24.51;40.23;94527.06;4980777;28;20117;-72
2020/12/09 10:59:33;;;;;;;7.50;4.05;;;;;;;24.56;40.27;94534.41;4980797;28;20042;-71
2020/12/09 11:01:58;;;;;;;7.60;3.45;;;;;;;24.59;40.09;94527.91;4980939;28;20046;-71
2020/12/09 11:04:23;;;;;;;8.18;3.72;;;;;;;24.61;40.54;94514.44;4978904;28;20061;-71
2020/12/09 11:06:49;;;;;;;6.68;3.38;;;;;;;24.57;40.04;94514.03;4981529;28;20108;-71
2020/12/09 11:09:14;;;;;;;7.70;3.67;;;;;;;24.68;40.42;94525.44;4996135;28;20038;-70
2020/12/09 11:11:45;;;;;;;5.63;3.05;;;;;;;24.68;39.88;94502.84;4979066;28;20031;-73
2020/12/09 11:14:11;;;;;;;7.07;3.20;;;;;;;24.75;40.30;94513.13;4981126;28;20038;-74
2020/12/09 11:16:37;;;;;;;7.45;3.50;;;;;;;24.83;40.34;94509.94;4980300;28;20065;-76
2020/12/09 11:19:02;;;;;;;5.65;3.28;;;;;;;24.92;39.82;94501.31;4995904;28;20019;-77
2020/12/09 11:21:28;;;;;;;5.53;3.08;;;;;;;24.93;39.98;94497.31;4866341;28;20043;-77
2020/12/09 11:23:53;;;;;;;7.00;3.53;;;;;;;24.99;40.08;94506.16;4961964;28;20023;-76
2020/12/09 11:26:20;;;;;;;5.88;3.00;;;;;;;25.00;39.53;94507.59;4964166;28;20038;-74
2020/12/09 11:28:45;;;;;;;6.10;3.03;;;;;;;25.02;39.51;94499.63;4960409;28;20038;-74
2020/12/09 11:31:11;;;;;;;7.70;3.90;;;;;;;25.07;39.66;94496.00;4959722;28;20042;-73
2020/12/09 11:33:36;;;;;;;6.60;3.42;;;;;;;25.11;39.43;94485.50;4961452;28;20514;-73
2020/12/09 11:36:02;;;;;;;6.15;3.28;;;;;;;25.12;39.40;94481.47;4961648;28;20066;-75
2020/12/09 11:38:27;;;;;;;7.75;3.50;;;;;;;25.16;39.38;94486.63;4965718;28;20027;-77
2020/12/09 11:40:53;;;;;;;6.75;3.50;;;;;;;25.19;39.44;94480.81;4965186;28;20035;-76
2020/12/09 11:43:19;;;;;;;5.82;3.50;;;;;;;25.20;39.07;94465.91;4964158;28;20034;-77
2020/12/09 11:45:44;;;;;;;5.40;3.10;;;;;;;25.24;39.21;94465.56;4963291;28;20034;-74
2020/12/09 11:48:12;;;;;;;4.93;3.17;;;;;;;25.24;39.14;94471.75;4981329;28;20441;-78
2020/12/09 11:50:39;;;;;;;5.25;3.10;;;;;;;25.25;38.98;94451.34;4963860;28;20824;-76
2020/12/09 11:53:05;;;;;;;7.28;3.50;;;;;;;25.24;38.95;94460.81;4966576;28;20035;-76
2020/12/09 11:55:30;;;;;;;7.10;3.55;;;;;;;25.36;38.85;94459.28;4966236;28;20630;-71
2020/12/09 11:57:56;;;;;;;5.85;3.08;;;;;;;25.44;38.70;94468.25;4964082;28;20043;-72
2020/12/09 12:00:21;;;;;;;5.22;3.42;;;;;;;25.45;39.03;94464.25;4961476;28;20062;-69
2020/12/09 12:02:47;;;;;;;5.90;2.95;;;;;;;25.37;38.70;94463.47;4962542;28;20384;-71
2020/12/09 12:05:12;;;;;;;5.70;3.30;;;;;;;25.47;38.45;94472.66;4976011;28;20573;-70
2020/12/09 12:07:39;;;;;;;5.70;3.42;;;;;;;25.39;38.33;94450.00;4963888;28;20491;-70
2020/12/09 12:10:04;;;;;;;5.13;3.15;;;;;;;25.39;38.25;94450.72;4964133;28;20506;-69
2020/12/09 12:12:30;;;;;;;5.05;2.92;;;;;;;25.38;38.52;94454.00;4965423;28;20130;-69
2020/12/09 12:14:56;;;;;;;5.15;2.90;;;;;;;25.41;38.66;94453.66;4963515;28;20412;-69
2020/12/09 12:17:21;;;;;;;5.32;3.47;;;;;;;25.37;38.41;94447.06;4964273;28;20042;-70
2020/12/09 12:19:47;;;;;;;4.93;3.25;;;;;;;25.29;38.59;94451.75;4965441;28;20042;-69
2020/12/09 12:22:12;;;;;;;7.45;4.38;;;;;;;25.23;38.45;94436.75;4964702;28;20026;-69
2020/12/09 12:24:38;;;;;;;4.90;3.00;;;;;;;25.28;38.46;94444.81;4965366;28;20034;-69
2020/12/09 12:27:04;;;;;;;5.10;3.05;;;;;;;25.21;38.93;94442.75;4966708;28;20038;-69
2020/12/09 12:29:29;;;;;;;5.35;2.72;;;;;;;25.21;38.88;94444.75;4964257;28;20050;-69
2020/12/09 12:31:57;;;;;;;6.20;3.40;;;;;;;25.17;38.80;94444.34;4964678;28;20446;-69
2020/12/09 12:34:22;;;;;;;8.43;3.50;;;;;;;25.11;38.95;94435.56;4965321;28;20030;-70
2020/12/09 12:36:48;;;;;;;5.95;3.00;;;;;;;25.08;38.72;94440.13;4963976;28;20027;-69
2020/12/09 12:39:14;;;;;;;4.90;2.50;;;;;;;24.98;38.63;94433.63;4964091;28;20027;-69
2020/12/09 12:41:43;;;;;;;5.28;2.80;;;;;;;24.99;39.10;94437.84;4963828;28;20042;-69
2020/12/09 12:44:08;;;;;;;5.28;2.88;;;;;;;24.83;39.22;94428.00;4965130;28;20031;-70
2020/12/09 12:46:33;;;;;;;4.80;2.65;;;;;;;24.93;39.15;94431.75;4963936;28;20045;-70
2020/12/09 12:48:59;;;;;;;6.60;2.90;;;;;;;24.86;39.27;94432.41;4979010;28;20046;-73
2020/12/09 12:51:24;;;;;;;4.60;2.70;;;;;;;24.84;39.23;94426.75;4978318;28;20038;-70
2020/12/09 12:53:50;;;;;;;5.05;3.05;;;;;;;24.81;39.10;94423.63;4978015;28;20042;-69
2020/12/09 12:56:19;;;;;;;5.80;3.20;;;;;;;24.73;39.40;94422.81;4964196;28;20035;-70
2020/12/09 12:58:48;;;;;;;4.60;2.85;;;;;;;24.79;39.42;94426.88;4965042;28;20030;-70
2020/12/09 13:01:14;;;;;;;5.25;2.50;;;;;;;24.78;39.20;94425.41;4960848;28;20489;-69
2020/12/09 13:03:40;;;;;;;4.45;3.13;;;;;;;24.72;39.63;94432.28;4964855;28;20026;-69
2020/12/09 13:06:05;;;;;;;3.97;2.42;;;;;;;24.74;39.69;94438.69;4963040;28;20037;-69
2020/12/09 13:08:37;;;;;;;5.00;2.80;;;;;;;24.71;39.35;94430.78;4964137;28;20027;-70
2020/12/09 13:11:04;;;;;;;9.05;3.00;;;;;;;24.64;39.72;94432.19;4961350;28;20085;-70
2020/12/09 13:13:29;;;;;;;9.23;3.20;;;;;;;24.63;39.38;94435.47;4976438;28;20039;-69
2020/12/09 13:15:55;;;;;;;13.65;3.45;;;;;;;24.60;39.36;94441.97;4962820;28;20518;-69
2020/12/09 13:18:20;;;;;;;9.18;3.13;;;;;;;24.58;39.81;94444.50;4962937;28;20033;-69
2020/12/09 13:20:46;;;;;;;13.23;3.50;;;;;;;24.55;39.62;94437.38;4961044;28;20399;-71
2020/12/09 13:23:12;;;;;;;17.92;3.40;;;;;;;24.53;39.45;94437.19;4961606;28;20042;-71
2020/12/09 13:25:37;;;;;;;12.90;3.22;;;;;;;24.50;39.96;94440.97;4962977;28;20063;-71
2020/12/09 13:28:03;;;;;;;12.02;3.60;;;;;;;24.51;39.57;94439.69;4961257;28;20035;-71
2020/12/09 13:30:28;;;;;;;15.95;3.90;;;;;;;24.49;39.68;94425.84;4963984;28;20549;-71
2020/12/09 13:32:54;;;;;;;11.32;3.55;;;;;;;24.47;40.11;94429.13;4962056;28;20058;-71
2020/12/09 13:35:19;;;;;;;12.15;3.38;;;;;;;24.34;39.69;94414.06;4960780;28;20452;-70
2020/12/09 13:37:45;;;;;;;12.20;3.00;;;;;;;24.43;40.26;94438.91;4960458;28;20101;-71
2020/12/09 13:40:10;;;;;;;11.73;3.25;;;;;;;24.36;40.38;94415.72;4962241;28;20011;-70
2020/12/09 13:42:36;;;;;;;12.30;3.90;;;;;;;24.38;40.08;94417.94;4963772;28;20034;-71
2020/12/09 13:45:02;;;;;;;14.52;3.47;;;;;;;24.32;40.13;94422.75;4963566;28;20034;-71
2020/12/09 13:47:28;;;;;;;11.95;3.20;;;;;;;24.31;40.24;94413.06;4961849;28;20050;-71
2020/12/09 13:49:53;;;;;;;13.65;3.72;;;;;;;24.32;40.29;94411.81;4959416;28;20451;-70
2020/12/09 13:52:19;;;;;;;14.65;4.10;;;;;;;24.32;40.36;94417.28;4962521;28;20038;-71
2020/12/09 13:54:44;;;;;;;17.27;3.85;;;;;;;24.29;40.44;94401.97;4961658;28;20042;-71
2020/12/09 13:57:10;;;;;;;10.50;3.58;;;;;;;24.27;40.54;94404.47;4943079;28;20054;-69
2020/12/09 13:59:35;;;;;;;18.63;4.68;;;;;;;24.24;40.81;94378.25;4960508;28;20049;-71
2020/12/09 14:02:01;;;;;;;16.00;4.15;;;;;;;24.23;40.53;94376.81;4963131;28;20561;-71
2020/12/09 14:04:26;;;;;;;17.48;4.05;;;;;;;24.23;40.72;94371.34;4961026;28;20483;-71
2020/12/09 14:06:55;;;;;;;19.58;4.07;;;;;;;24.25;40.71;94377.00;4959221;28;20058;-73
2020/12/09 14:09:21;;;;;;;17.67;3.90;;;;;;;24.21;40.59;94357.47;4960763;28;20023;-69
2020/12/09 14:11:46;;;;;;;16.27;3.80;;;;;;;24.22;41.07;94364.41;4960034;28;20050;-70
2020/12/09 14:14:13;;;;;;;16.42;3.97;;;;;;;24.23;40.96;94365.88;4963066;28;20526;-70
2020/12/09 14:16:41;;;;;;;18.58;4.00;;;;;;;24.22;40.72;94372.59;4959303;28;20030;-70
2020/12/09 14:19:17;;;;;;;16.95;4.05;;;;;;;24.21;40.94;94373.84;4977686;28;20039;-71
2020/12/09 14:21:43;;;;;;;13.65;4.00;;;;;;;24.01;40.70;94339.09;4963095;28;20038;-71
2020/12/09 14:24:10;;;;;;;15.75;4.28;;;;;;;24.13;40.70;94356.69;4976165;28;20109;-71
2020/12/09 14:26:35;;;;;;;15.70;3.97;;;;;;;24.14;41.09;94363.59;4962250;28;20035;-71
2020/12/09 14:29:01;;;;;;;16.98;4.13;;;;;;;24.10;40.55;94362.47;4961697;28;20427;-70
2020/12/09 14:31:26;;;;;;;19.50;4.50;;;;;;;24.11;40.81;94359.22;4962934;28;20062;-70
2020/12/09 14:33:53;;;;;;;18.25;4.40;;;;;;;24.10;40.64;94357.00;4962854;28;20034;-70
2020/12/09 14:36:18;;;;;;;17.30;3.85;;;;;;;24.05;40.76;94333.28;4941980;28;20042;-71
2020/12/09 14:38:44;;;;;;;12.85;3.65;;;;;;;24.03;40.49;94314.72;4959788;28;20019;-71
2020/12/09 14:41:10;;;;;;;14.88;4.43;;;;;;;24.08;40.64;94332.25;4977497;28;20074;-70
2020/12/09 14:43:42;;;;;;;14.60;3.75;;;;;;;24.08;40.62;94332.25;4957971;28;20126;-71
2020/12/09 14:46:08;;;;;;;14.38;3.90;;;;;;;24.05;41.14;94317.69;4959152;28;20113;-71
2020/12/09 14:48:33;;;;;;;15.02;4.85;;;;;;;24.06;40.64;94319.13;4960369;28;20050;-71
2020/12/09 14:50:59;;;;;;;11.55;3.53;;;;;;;24.05;41.22;94312.22;4957782;28;20031;-70
2020/12/09 14:53:24;;;;;;;12.88;3.30;;;;;;;24.04;41.28;94310.75;4962963;28;20031;-71
2020/12/09 14:55:52;;;;;;;12.50;3.83;;;;;;;24.04;40.83;94310.03;4961327;28;20034;-71
2020/12/09 14:58:20;;;;;;;18.05;4.45;;;;;;;24.02;40.69;94307.84;4960637;28;20214;-70
2020/12/09 15:00:46;;;;;;;13.73;3.67;;;;;;;24.01;41.20;94311.81;4961804;28;20027;-71
2020/12/09 15:03:11;;;;;;;16.42;3.90;;;;;;;24.00;41.23;94313.06;4976914;28;20042;-71
2020/12/09 15:05:37;;;;;;;15.23;4.05;;;;;;;24.00;40.89;94326.69;4978043;28;20030;-70
2020/12/09 15:08:03;;;;;;;19.00;4.57;;;;;;;23.97;40.91;94343.41;4959498;28;20043;-71
2020/12/09 15:10:29;;;;;;;17.10;3.92;;;;;;;23.98;41.13;94329.22;4962510;28;20027;-71
2020/12/09 15:12:55;;;;;;;12.57;3.55;;;;;;;23.97;40.72;94327.75;4963596;28;20047;-71
2020/12/09 15:15:20;;;;;;;11.30;4.20;;;;;;;23.95;41.19;94330.28;4965231;28;20026;-70
2020/12/09 15:17:46;;;;;;;15.95;3.97;;;;;;;23.95;41.22;94324.84;4966354;28;20030;-71
2020/12/09 15:20:12;;;;;;;15.70;3.58;;;;;;;23.96;40.80;94318.13;4964257;28;20060;-72
2020/12/09 15:22:43;;;;;;;12.73;3.40;;;;;;;23.96;41.10;94304.50;4948387;28;20842;-72
2020/12/09 15:25:09;;;;;;;13.38;4.38;;;;;;;23.98;40.86;94310.16;4965420;28;20037;-72
2020/12/09 15:27:35;;;;;;;11.85;3.72;;;;;;;23.98;41.17;94312.88;4967340;28;20487;-72
2020/12/09 15:30:00;;;;;;;9.93;3.67;;;;;;;24.00;41.09;94313.06;4965778;28;20035;-71
2020/12/09 15:32:26;;;;;;;11.95;3.58;;;;;;;24.02;40.79;94324.19;4966699;28;20069;-70